Aérodrome :
LOGIN :

S'inscrire | Disclaimer

   EN    FR    IT 

 










Légende :    VFR   VFR Marginal   IFR   IFR Intensif   IFR Très Intensif
Visi : 
Plafond : 
>= 8 km
>= 3000ft
5 à 8 km
1000 à 3000 ft
1500m à 5 km
500 à 1000 ft
800 à 1500m
200 à 500 ft
< 800m
< 200 ft
Symboles :   Orages  Brouillard  Fortes neiges  Fortes précipitations  Vent > 20 kt
SIGMETs :   Divers  Orages  Givrage  Turbulence  Onde Orograph.  Cendres Volcan.






- Altitude de l'aérodrome : 407 ft


EGDM - MoD Boscombe Down Amesbury

DERNIER METAR :
  • 211450Z AUTO 04012KT 9999 BKN047/// 11/00 Q1029

METARs EXPIRÉS :
  • 211420Z AUTO 02011KT 9999 BKN047/// 12/00 Q1029
  • 211350Z AUTO 04013KT 9999 SCT046/// 12/00 Q1029
  • 211320Z AUTO 03012KT 9999 BKN045/// 11/00 Q1030
  • 211250Z AUTO 05014KT 9999 BKN044/// 10/M01 Q1030
  • 211220Z AUTO 04014KT 9999 SCT044/// 11/00 Q1030
  • 211150Z AUTO 04014KT 9999 BKN041/// 11/M00 Q1030
  • 211120Z AUTO 05014KT 9999 SCT041/// 10/00 Q1030
  • 211050Z AUTO 03014KT 9999 FEW040/// 10/00 Q1030
  • 211020Z AUTO 03013KT 9999 FEW035/// 09/00 Q1030
  • 210950Z AUTO 03014KT 9999 FEW033/// 09/M00 Q1030

Prévision TAF périmée.



MET'MAP, la Météo Aéronautique d'un coup d'oeil ! - Copyright ORBIFLY Décembre 2007 - Disclaimer

ORBIFLY MET'MAP TEAM :

Programmation & Développement : Alexandra Zaïnal
Sur une idée originale de : Baudouin d'Aumeries
Soutien technique & logistique : Manuel Goepfert
Assistance : Marc-Olivier Méhu




SOURCES & CREDITS :

   NOAA